CheckWX is a tool to help pilots better visualize weather data.  It is not intended as a substitute for an official pre-flight weather briefing.

18:50:29 UTC

06C METAR
Schaumburg Regional Airport
Chicago/Schaumburg, Illinois, USA
Current

15 mins ago

K06C 191835Z AUTO 23004KT 10SM BKN029 OVC038 33/27 A2984 RMK AO2 T03320272
Observed
Jul-19 @ 18:35 UTC
Wind
  • 230° at 4 KTS
Visibility
10 SM
Flight Rules
MVFR
Cloud Levels
  • Broken at 2,900' AGL
  • Overcast at 3,800' AGL
Temperature
33°C / 91°F
Dewpoint
27°C / 81°F
Heat Index
43°C / 110°F
Humidity
71%
Altimeter
29.84" Hg
Pressure
1010.52 hPa
Previous

35 mins ago

K06C 191815Z AUTO 23004KT 10SM BKN029 BKN036 33/27 A2985 RMK AO2 T03330268
Observed
Jul-19 @ 18:15 UTC
Wind
  • 230° at 4 KTS
Visibility
10 SM
Flight Rules
MVFR
Cloud Levels
  • Broken at 2,900' AGL
  • Broken at 3,600' AGL
Temperature
33°C / 91°F
Dewpoint
27°C / 81°F
Heat Index
43°C / 110°F
Humidity
71%
Altimeter
29.85" Hg
Pressure
1010.82 hPa
Previous

55 mins ago

K06C 191755Z AUTO 26005KT 10SM BKN029 BKN037 33/27 A2985 RMK AO2 T03270268 10330 20280
Observed
Jul-19 @ 17:55 UTC
Wind
  • 260° at 5 KTS
Visibility
10 SM
Flight Rules
MVFR
Cloud Levels
  • Broken at 2,900' AGL
  • Broken at 3,700' AGL
Temperature
33°C / 91°F
Dewpoint
27°C / 81°F
Heat Index
43°C / 110°F
Humidity
71%
Altimeter
29.85" Hg
Pressure
1010.82 hPa